Time;durP1;ratioP1;P1;durP2;ratioP2;P2;SDS_P1;SDS_P2;PMS_P1;PMS_P2;Temp;Humidity;BMP_temperature;BMP_pressure;BME280_temperature;BME280_humidity;BME280_pressure;Samples;Min_cycle;Max_cycle;Signal;HPM_P1;HPM_P2
2021/05/18 00:00:07;;;;;;;4.03;2.20;;;21.20;52.40;;;;;;4973323;28;20568;-60
2021/05/18 00:02:33;;;;;;;4.00;2.30;;;21.20;52.40;;;;;;4971066;28;20229;-61
2021/05/18 00:05:01;;;;;;;3.37;1.80;;;21.10;52.40;;;;;;4972434;28;20624;-60
2021/05/18 00:07:27;;;;;;;2.77;1.70;;;21.10;52.30;;;;;;4953271;28;20237;-61
2021/05/18 00:12:40;;;;;;;4.47;1.93;;;21.10;52.30;;;;;;4972226;28;20666;-61
2021/05/18 00:15:14;;;;;;;4.07;2.10;;;21.10;52.40;;;;;;4973116;28;20224;-61
2021/05/18 00:17:41;;;;;;;3.47;1.90;;;21.10;52.40;;;;;;4972628;28;20565;-61
2021/05/18 00:20:11;;;;;;;3.53;1.70;;;21.10;52.40;;;;;;4962958;28;20229;-61
2021/05/18 00:22:38;;;;;;;4.40;2.40;;;21.10;52.40;;;;;;4953280;28;20232;-61
2021/05/18 00:25:07;;;;;;;4.13;2.10;;;21.00;52.40;;;;;;4953351;28;20221;-61
2021/05/18 00:27:34;;;;;;;3.90;2.20;;;21.00;52.40;;;;;;4953253;28;20591;-61
2021/05/18 00:30:02;;;;;;;5.53;1.90;;;21.00;52.40;;;;;;4971580;28;20227;-62
2021/05/18 00:32:29;;;;;;;2.73;1.90;;;21.00;52.40;;;;;;4972622;28;20232;-60
2021/05/18 00:34:57;;;;;;;4.40;2.00;;;21.00;52.40;;;;;;4971655;28;20226;-61
2021/05/18 00:37:25;;;;;;;4.57;2.10;;;21.00;52.40;;;;;;4972539;28;20232;-60
2021/05/18 00:39:52;;;;;;;4.53;2.30;;;21.00;52.40;;;;;;4972823;28;20627;-61
2021/05/18 00:42:23;;;;;;;3.67;1.70;;;21.00;52.40;;;;;;4972627;28;20229;-61
2021/05/18 00:44:50;;;;;;;5.00;2.10;;;21.00;52.40;;;;;;4972455;28;20547;-61
2021/05/18 00:47:17;;;;;;;3.40;1.87;;;21.00;52.50;;;;;;4972480;28;20364;-60
2021/05/18 00:49:45;;;;;;;3.30;1.80;;;21.00;52.60;;;;;;4972420;28;20221;-61
2021/05/18 00:52:12;;;;;;;2.93;1.83;;;21.00;52.70;;;;;;4974812;28;20693;-60
2021/05/18 00:54:55;;;;;;;3.77;2.07;;;20.90;52.60;;;;;;4975982;28;20229;-60
2021/05/18 01:04:45;;;;;;;3.80;2.23;;;20.90;52.60;;;;;;4955554;28;20225;-62
2021/05/18 01:10:46;;;;;;;3.97;2.30;;;20.90;52.60;;;;;;4902585;28;20334;-59
2021/05/18 01:13:13;;;;;;;3.53;2.27;;;20.90;52.60;;;;;;4937850;28;20720;-59
2021/05/18 01:15:40;;;;;;;3.23;2.00;;;20.90;52.60;;;;;;4935406;28;20230;-59
2021/05/18 01:18:14;;;;;;;4.17;2.40;;;20.80;52.60;;;;;;4952238;28;20232;-61
2021/05/18 01:21:01;;;;;;;4.23;2.43;;;20.90;52.60;;;;;;4948638;28;20586;-61
2021/05/18 01:23:28;;;;;;;3.87;2.37;;;20.80;52.60;;;;;;4938896;28;20252;-61
2021/05/18 01:25:55;;;;;;;3.13;2.33;;;20.80;52.50;;;;;;4937007;28;20248;-61
2021/05/18 01:28:25;;;;;;;4.27;2.57;;;20.80;52.60;;;;;;4937286;28;20238;-60
2021/05/18 01:30:55;;;;;;;4.60;2.73;;;20.80;52.50;;;;;;4933436;28;20241;-61
2021/05/18 01:33:22;;;;;;;2.70;2.03;;;20.80;52.50;;;;;;4937042;28;20243;-61
2021/05/18 01:35:49;;;;;;;2.83;2.10;;;20.80;52.50;;;;;;4936966;28;20236;-61
2021/05/18 01:38:19;;;;;;;5.17;2.60;;;20.80;52.60;;;;;;4936887;28;20241;-60
2021/05/18 01:43:31;;;;;;;3.27;2.10;;;20.80;52.60;;;;;;4937217;28;20710;-61
2021/05/18 01:45:58;;;;;;;3.00;1.93;;;20.80;52.60;;;;;;4937091;28;20240;-60
2021/05/18 01:48:25;;;;;;;3.10;2.10;;;20.80;52.60;;;;;;4936482;28;20674;-59
2021/05/18 01:50:52;;;;;;;2.40;2.00;;;20.80;52.60;;;;;;4937023;28;20241;-59
2021/05/18 01:53:21;;;;;;;2.67;2.07;;;20.80;52.70;;;;;;4937014;28;20249;-58
2021/05/18 01:58:33;;;;;;;2.53;1.67;;;20.80;52.70;;;;;;4936600;28;20277;-58
2021/05/18 02:01:00;;;;;;;5.13;2.00;;;20.70;52.60;;;;;;4936717;28;20230;-59
2021/05/18 02:03:28;;;;;;;2.90;1.50;;;20.80;52.70;;;;;;4936206;28;20253;-59
2021/05/18 02:09:36;;;;;;;2.07;1.70;;;20.70;52.70;;;;;;4921599;28;20372;-59
2021/05/18 02:12:03;;;;;;;2.47;1.63;;;20.70;52.70;;;;;;4974463;28;20585;-59
2021/05/18 02:14:32;;;;;;;3.53;2.00;;;20.70;52.80;;;;;;4972799;28;20232;-59
2021/05/18 02:17:13;;;;;;;2.60;1.60;;;20.70;52.80;;;;;;4974072;28;20731;-58
2021/05/18 02:20:13;;;;;;;1.70;1.47;;;20.70;52.70;;;;;;4974346;28;20224;-58
2021/05/18 02:25:47;;;;;;;1.70;1.50;;;20.70;52.80;;;;;;4963517;28;20227;-55
2021/05/18 02:28:14;;;;;;;2.67;1.90;;;20.70;52.80;;;;;;4971924;28;20769;-58
2021/05/18 02:30:40;;;;;;;2.27;1.70;;;20.70;52.90;;;;;;4964613;28;21385;-58
2021/05/18 02:33:07;;;;;;;2.00;1.50;;;20.70;52.80;;;;;;4972008;28;20241;-58
2021/05/18 02:35:34;;;;;;;1.93;1.70;;;20.70;52.90;;;;;;4972997;28;20240;-58
2021/05/18 02:38:01;;;;;;;1.50;1.30;;;20.70;52.90;;;;;;4972599;28;20228;-56
2021/05/18 02:40:30;;;;;;;2.20;1.60;;;20.70;52.90;;;;;;4972098;28;20232;-58
2021/05/18 02:42:57;;;;;;;1.60;1.50;;;20.70;52.90;;;;;;4972470;28;20216;-56
2021/05/18 02:45:35;;;;;;;1.90;1.67;;;20.70;52.90;;;;;;4972057;28;20237;-56
2021/05/18 02:50:48;;;;;;;1.83;1.50;;;20.60;52.90;;;;;;4968158;28;20479;-58
2021/05/18 02:53:21;;;;;;;1.80;1.57;;;20.60;53.50;;;;;;4972298;28;20265;-58
2021/05/18 02:56:06;;;;;;;2.10;1.80;;;20.70;52.90;;;;;;4971560;28;20232;-58
2021/05/18 02:58:35;;;;;;;1.80;1.30;;;20.60;53.60;;;;;;4971726;28;20603;-56
2021/05/18 03:01:02;;;;;;;1.93;1.47;;;20.60;52.90;;;;;;4969607;28;20574;-57
2021/05/18 03:03:29;;;;;;;3.47;1.43;;;20.60;53.00;;;;;;4969193;28;20239;-57
2021/05/18 03:06:21;;;;;;;2.47;1.33;;;20.60;53.00;;;;;;4971216;28;20260;-57
2021/05/18 03:08:49;;;;;;;1.60;1.30;;;20.60;53.00;;;;;;4969988;28;20570;-56
2021/05/18 03:11:17;;;;;;;1.63;1.40;;;20.60;53.10;;;;;;4971613;28;20236;-59
2021/05/18 03:13:43;;;;;;;1.60;1.43;;;20.60;53.60;;;;;;4970793;28;20225;-58
2021/05/18 03:16:15;;;;;;;1.73;1.50;;;20.60;53.00;;;;;;4970783;28;20243;-58
2021/05/18 03:18:43;;;;;;;1.63;1.47;;;20.60;53.00;;;;;;4970906;28;20491;-58
2021/05/18 03:21:10;;;;;;;1.60;1.50;;;20.60;53.00;;;;;;4971184;28;20661;-58
2021/05/18 03:23:36;;;;;;;2.03;1.60;;;20.60;53.10;;;;;;4970984;28;20733;-58
2021/05/18 03:29:47;;;;;;;2.03;1.50;;;20.60;53.10;;;;;;4946997;28;20304;-57
2021/05/18 03:34:59;;;;;;;1.97;1.77;;;20.60;53.10;;;;;;4963970;28;20694;-57
2021/05/18 03:40:04;;;;;;;1.70;1.40;;;20.60;53.10;;;;;;4971938;28;20235;-57
2021/05/18 03:42:35;;;;;;;1.40;1.30;;;20.50;53.10;;;;;;4971089;28;20228;-59
2021/05/18 03:45:16;;;;;;;1.70;1.60;;;20.50;53.00;;;;;;4971299;28;20232;-58
2021/05/18 03:53:41;;;;;;;1.43;1.33;;;20.50;53.00;;;;;;5001955;28;20708;-58
2021/05/18 03:59:00;;;;;;;1.90;1.47;;;20.50;53.10;;;;;;4950010;28;20351;-59
2021/05/18 04:04:16;;;;;;;3.73;1.90;;;20.50;53.10;;;;;;4971630;28;20216;-59
2021/05/18 04:19:20;;;;;;;2.50;1.70;;;20.50;53.00;;;;;;4949657;28;21066;-57
2021/05/18 04:22:17;;;;;;;5.83;2.10;;;20.50;53.00;;;;;;4966909;28;20712;-57
2021/05/18 04:25:06;;;;;;;2.97;1.80;;;20.50;53.00;;;;;;4967286;28;20734;-57
2021/05/18 04:42:11;;;;;;;3.30;2.30;;;20.50;53.00;;;;;;4972207;28;20224;-57
2021/05/18 04:50:59;;;;;;;4.00;1.77;;;20.50;53.00;;;;;;4957446;28;20246;-57
2021/05/18 04:53:43;;;;;;;3.00;2.40;;;20.50;53.00;;;;;;4964596;28;20229;-56
2021/05/18 04:59:17;;;;;;;4.17;2.37;;;20.40;53.00;;;;;;4960037;28;20228;-57
2021/05/18 05:01:52;;;;;;;2.57;2.03;;;20.40;52.90;;;;;;4973092;28;20974;-57
2021/05/18 05:07:09;;;;;;;3.70;2.40;;;20.40;53.00;;;;;;4973035;28;20243;-57
2021/05/18 05:09:39;;;;;;;3.73;2.93;;;20.40;53.20;;;;;;4973190;28;20578;-56
2021/05/18 05:14:51;;;;;;;4.97;2.70;;;20.50;53.30;;;;;;4950966;28;21735;-59
2021/05/18 05:17:37;;;;;;;4.83;3.23;;;20.40;53.30;;;;;;4974001;28;20240;-57
2021/05/18 05:20:05;;;;;;;7.03;4.47;;;20.40;53.40;;;;;;4980444;28;20241;-56
2021/05/18 05:22:32;;;;;;;8.73;4.57;;;20.40;53.30;;;;;;4976744;28;20247;-55
2021/05/18 05:24:58;;;;;;;13.43;5.03;;;20.40;53.40;;;;;;4974469;28;20225;-57
2021/05/18 05:27:25;;;;;;;13.07;5.10;;;20.40;53.50;;;;;;4979356;28;20245;-57
2021/05/18 05:30:00;;;;;;;7.83;4.50;;;20.40;53.50;;;;;;4966280;28;20236;-57
2021/05/18 05:32:27;;;;;;;7.27;4.37;;;20.40;53.50;;;;;;4974579;28;20260;-57
2021/05/18 05:34:53;;;;;;;10.63;4.93;;;20.40;53.30;;;;;;4973439;28;20236;-57
2021/05/18 05:37:26;;;;;;;10.93;5.20;;;20.40;53.30;;;;;;4973940;28;20235;-57
2021/05/18 05:39:53;;;;;;;7.17;4.60;;;20.40;53.20;;;;;;4973368;28;20232;-57
2021/05/18 05:42:21;;;;;;;10.20;5.90;;;20.40;53.20;;;;;;4971949;28;20247;-58
2021/05/18 05:44:48;;;;;;;6.97;5.20;;;20.40;53.10;;;;;;4976626;28;20220;-56
2021/05/18 05:47:30;;;;;;;7.57;5.33;;;20.40;53.20;;;;;;4974679;28;20228;-55
2021/05/18 05:49:57;;;;;;;9.17;5.77;;;20.40;53.20;;;;;;4953240;28;20228;-56
2021/05/18 05:52:24;;;;;;;11.80;5.90;;;20.40;53.50;;;;;;4974535;28;20221;-56
2021/05/18 05:54:51;;;;;;;10.47;6.13;;;20.40;53.60;;;;;;4979908;28;20236;-57
2021/05/18 05:57:19;;;;;;;9.07;6.03;;;20.40;53.70;;;;;;4985877;28;20315;-57
2021/05/18 05:59:47;;;;;;;11.07;7.37;;;20.40;53.60;;;;;;4971119;28;20255;-55
2021/05/18 06:02:14;;;;;;;13.13;6.70;;;20.40;53.50;;;;;;4976960;28;20217;-55
2021/05/18 06:04:43;;;;;;;10.47;6.57;;;20.40;53.70;;;;;;4978930;28;20224;-58
2021/05/18 06:07:10;;;;;;;10.30;6.33;;;20.40;53.70;;;;;;4974958;28;20529;-55
2021/05/18 06:09:39;;;;;;;9.53;6.33;;;20.40;53.70;;;;;;4968142;28;20235;-62
2021/05/18 06:12:33;;;;;;;10.17;7.03;;;20.40;53.60;;;;;;4970227;28;20228;-57
2021/05/18 06:47:37;;;;;;;9.97;8.03;;;20.80;53.00;;;;;;4963287;28;20224;-62
2021/05/18 06:52:47;;;;;;;10.13;7.13;;;20.90;52.90;;;;;;4966067;28;20220;-64
2021/05/18 06:55:18;;;;;;;12.90;7.63;;;20.90;53.20;;;;;;4994774;28;20378;-59
2021/05/18 06:57:48;;;;;;;15.27;7.27;;;20.90;53.20;;;;;;4960104;28;20238;-59
2021/05/18 07:00:19;;;;;;;20.35;7.68;;;21.00;52.90;;;;;;4965710;28;21145;-59
2021/05/18 07:02:52;;;;;;;17.87;7.53;;;20.90;53.00;;;;;;4961896;28;20361;-59
2021/05/18 07:05:33;;;;;;;14.50;7.77;;;21.00;53.50;;;;;;4953839;28;20240;-62
2021/05/18 07:10:40;;;;;;;13.40;6.57;;;21.00;53.00;;;;;;4957642;28;20225;-61
2021/05/18 07:13:07;;;;;;;13.80;7.13;;;21.10;52.80;;;;;;4964963;28;20232;-63
2021/05/18 07:15:34;;;;;;;10.60;6.60;;;21.20;53.00;;;;;;4967147;28;20225;-64
2021/05/18 07:18:01;;;;;;;10.10;6.43;;;21.20;53.00;;;;;;4963606;28;20279;-65
2021/05/18 07:20:29;;;;;;;10.40;7.17;;;21.20;52.80;;;;;;4966445;28;20244;-60
2021/05/18 07:22:59;;;;;;;11.80;6.80;;;21.30;53.10;;;;;;4962079;28;20229;-62
2021/05/18 07:25:31;;;;;;;9.90;6.23;;;21.30;53.10;;;;;;4965770;28;20665;-64
2021/05/18 07:27:58;;;;;;;9.13;6.07;;;21.30;53.00;;;;;;4961286;28;20252;-62
2021/05/18 07:30:25;;;;;;;7.93;6.40;;;21.30;52.70;;;;;;4962351;28;20221;-62
2021/05/18 07:32:51;;;;;;;9.90;5.90;;;21.40;52.60;;;;;;4965952;28;20251;-63
2021/05/18 07:35:23;;;;;;;11.50;6.23;;;21.40;52.30;;;;;;4961400;28;20696;-63
2021/05/18 07:37:50;;;;;;;7.83;6.43;;;21.40;52.20;;;;;;4962162;28;20224;-63
2021/05/18 07:40:17;;;;;;;10.10;7.23;;;21.50;52.40;;;;;;4966820;28;20229;-61
2021/05/18 07:42:44;;;;;;;11.50;7.67;;;21.50;52.50;;;;;;4967000;28;20260;-63
2021/05/18 07:45:11;;;;;;;7.20;6.50;;;21.50;52.10;;;;;;4969487;28;20747;-62
2021/05/18 07:47:38;;;;;;;10.93;6.47;;;21.60;52.20;;;;;;4960866;28;20236;-61
2021/05/18 07:50:10;;;;;;;9.23;7.17;;;21.60;52.10;;;;;;4963359;28;20247;-61
2021/05/18 08:02:18;;;;;;;7.70;6.47;;;21.60;51.50;;;;;;4946802;28;20411;-60
2021/05/18 08:06:50;;;;;;;6.60;5.43;;;21.70;51.40;;;;;;4951818;28;20255;-59
2021/05/18 08:09:19;;;;;;;7.20;6.50;;;21.70;51.40;;;;;;4948164;28;20240;-64
2021/05/18 08:11:47;;;;;;;6.53;5.77;;;21.70;51.20;;;;;;4972828;28;22220;-62
2021/05/18 08:14:15;;;;;;;6.13;5.30;;;21.70;51.10;;;;;;4985259;28;20230;-63
2021/05/18 08:17:05;;;;;;;9.10;4.83;;;21.70;50.70;;;;;;4982990;28;20906;-64
2021/05/18 09:48:26;;;;;;;4.40;3.10;;;22.20;49.70;;;;;;4986169;28;20229;-60
2021/05/18 10:27:09;;;;;;;5.43;4.00;;;22.30;48.50;;;;;;4965486;28;20687;-59
2021/05/18 10:34:51;;;;;;;4.23;3.27;;;21.90;49.20;;;;;;4984444;28;20239;-59
2021/05/18 10:37:50;;;;;;;2.50;2.30;;;21.90;49.20;;;;;;4984482;28;21871;-62
2021/05/18 10:40:22;;;;;;;3.47;2.50;;;21.90;49.10;;;;;;4983054;28;20350;-60
2021/05/18 10:43:11;;;;;;;2.47;2.00;;;21.90;48.80;;;;;;4985880;28;20282;-62
2021/05/18 10:45:54;;;;;;;2.83;1.50;;;21.80;48.50;;;;;;4978946;28;20247;-60
2021/05/18 10:48:37;;;;;;;3.20;1.70;;;21.80;48.60;;;;;;4972514;28;20414;-61
2021/05/18 10:51:30;;;;;;;1.80;1.50;;;21.80;48.80;;;;;;4971679;28;22066;-61
2021/05/18 10:54:19;;;;;;;1.70;1.33;;;21.70;48.70;;;;;;4981841;28;20262;-61
2021/05/18 10:57:01;;;;;;;2.60;1.17;;;21.70;48.70;;;;;;4978107;28;20228;-63
2021/05/18 10:59:40;;;;;;;1.73;1.27;;;21.70;49.20;;;;;;4980825;28;20270;-63
2021/05/18 11:02:08;;;;;;;2.50;1.60;;;21.70;49.60;;;;;;4982670;28;20587;-63
2021/05/18 11:04:41;;;;;;;0.97;0.83;;;21.80;49.90;;;;;;4983087;28;20331;-62
2021/05/18 11:07:16;;;;;;;2.70;0.93;;;21.80;49.70;;;;;;4983331;28;20233;-62
2021/05/18 11:09:43;;;;;;;1.30;0.93;;;21.80;49.60;;;;;;4976545;28;20238;-62
2021/05/18 11:12:16;;;;;;;0.93;0.80;;;21.80;49.90;;;;;;4986153;28;20251;-61
2021/05/18 11:14:47;;;;;;;1.17;0.80;;;21.80;50.10;;;;;;4977458;28;20660;-63
2021/05/18 11:17:21;;;;;;;1.07;0.77;;;21.80;50.20;;;;;;4985390;28;21446;-62
2021/05/18 11:20:24;;;;;;;1.27;1.00;;;21.80;50.20;;;;;;4981127;28;20228;-63
2021/05/18 11:23:22;;;;;;;3.57;0.93;;;21.80;50.30;;;;;;4969155;28;20271;-63
2021/05/18 11:26:09;;;;;;;1.50;0.80;;;21.90;50.40;;;;;;4981030;28;20658;-63
2021/05/18 11:28:44;;;;;;;2.07;1.10;;;22.00;50.50;;;;;;4980776;28;20238;-62
2021/05/18 11:31:17;;;;;;;4.70;1.17;;;22.00;50.50;;;;;;4984614;28;21674;-64
2021/05/18 11:33:48;;;;;;;2.77;1.00;;;22.10;50.60;;;;;;4982134;28;20849;-64
2021/05/18 11:36:17;;;;;;;1.90;1.10;;;22.20;50.60;;;;;;4983142;28;20328;-65
2021/05/18 11:38:51;;;;;;;1.10;1.00;;;22.20;50.60;;;;;;4982426;28;20497;-65
2021/05/18 11:41:23;;;;;;;2.80;0.90;;;22.30;50.60;;;;;;4981437;28;20537;-62
2021/05/18 11:43:52;;;;;;;1.47;0.93;;;22.30;50.50;;;;;;4981346;28;20265;-62
2021/05/18 11:46:19;;;;;;;1.20;1.10;;;22.30;50.30;;;;;;4985190;28;20246;-63
2021/05/18 11:49:00;;;;;;;2.30;1.70;;;22.40;50.60;;;;;;4981318;28;20632;-62
2021/05/18 11:51:50;;;;;;;2.90;1.30;;;22.40;50.60;;;;;;4980140;28;20239;-66
2021/05/18 11:54:28;;;;;;;3.00;1.20;;;22.50;50.40;;;;;;4970505;28;20648;-67
2021/05/18 11:57:01;;;;;;;1.40;1.20;;;22.50;50.10;;;;;;4982942;28;20255;-67
2021/05/18 11:59:35;;;;;;;3.93;1.40;;;22.50;50.20;;;;;;4982372;28;20769;-64
2021/05/18 12:02:06;;;;;;;1.37;1.20;;;22.50;50.20;;;;;;4981684;28;20228;-64
2021/05/18 12:05:06;;;;;;;1.67;1.30;;;22.60;50.10;;;;;;4966566;28;22969;-64
2021/05/18 12:07:33;;;;;;;1.90;0.83;;;22.60;50.80;;;;;;4983531;28;20219;-64
2021/05/18 12:10:00;;;;;;;1.23;1.13;;;22.60;50.30;;;;;;4980407;28;20732;-66
2021/05/18 12:12:36;;;;;;;1.60;1.03;;;22.60;50.30;;;;;;4983244;28;20629;-67
2021/05/18 12:15:08;;;;;;;3.83;1.40;;;22.70;50.20;;;;;;4981612;28;20238;-62
2021/05/18 12:17:36;;;;;;;3.17;1.10;;;22.70;50.00;;;;;;4985727;28;20227;-62
2021/05/18 12:20:13;;;;;;;1.60;1.20;;;22.60;50.00;;;;;;4961951;28;20243;-64
2021/05/18 12:22:41;;;;;;;6.53;1.17;;;22.60;50.10;;;;;;4992887;28;20727;-63
2021/05/18 12:25:11;;;;;;;2.63;1.03;;;22.70;50.10;;;;;;4963372;28;20228;-63
2021/05/18 12:27:46;;;;;;;2.13;1.10;;;22.70;50.10;;;;;;4961607;28;20224;-63
2021/05/18 12:30:14;;;;;;;2.17;1.47;;;22.70;50.00;;;;;;4962526;28;20235;-62
2021/05/18 12:32:48;;;;;;;2.23;1.27;;;22.70;50.70;;;;;;4969070;28;20230;-62
2021/05/18 12:35:22;;;;;;;2.20;1.00;;;22.80;50.30;;;;;;4981717;28;21073;-62
2021/05/18 12:37:50;;;;;;;1.20;1.00;;;22.80;50.30;;;;;;4977577;28;20234;-63
2021/05/18 12:40:27;;;;;;;2.53;1.20;;;22.80;50.40;;;;;;4981728;28;20246;-62
2021/05/18 12:43:06;;;;;;;1.93;1.27;;;22.90;50.50;;;;;;4982507;28;20227;-65
2021/05/18 12:45:33;;;;;;;2.87;2.23;;;22.90;50.50;;;;;;4981193;28;20216;-63
2021/05/18 12:48:00;;;;;;;2.57;1.83;;;22.90;50.70;;;;;;4997350;28;20215;-65
2021/05/18 12:50:35;;;;;;;4.27;2.70;;;23.00;50.00;;;;;;4985448;28;20223;-62
2021/05/18 12:53:03;;;;;;;3.47;2.93;;;23.00;49.70;;;;;;4984930;28;20223;-62
2021/05/18 12:55:31;;;;;;;5.17;3.17;;;23.00;49.10;;;;;;4987289;28;20957;-62
2021/05/18 12:58:06;;;;;;;8.80;3.03;;;23.00;48.60;;;;;;4981673;28;20232;-64
2021/05/18 13:00:38;;;;;;;4.60;3.00;;;23.10;48.80;;;;;;4980489;28;23568;-63
2021/05/18 13:03:17;;;;;;;6.00;3.30;;;23.00;48.60;;;;;;4987068;28;20246;-64
2021/05/18 13:05:52;;;;;;;2.70;2.43;;;23.00;47.90;;;;;;4985099;28;20294;-61
2021/05/18 13:08:39;;;;;;;3.77;2.67;;;23.00;47.80;;;;;;4980218;28;20353;-63
2021/05/18 13:13:56;;;;;;;3.77;3.17;;;23.00;46.40;;;;;;4981471;28;20652;-63
2021/05/18 13:16:25;;;;;;;3.80;2.90;;;22.90;45.70;;;;;;4985507;28;20243;-62
2021/05/18 13:18:54;;;;;;;3.50;3.20;;;22.90;46.80;;;;;;4987567;28;20220;-64
2021/05/18 13:21:38;;;;;;;5.70;3.00;;;22.90;45.50;;;;;;4996357;28;20310;-59
2021/05/18 13:26:39;;;;;;;4.20;2.60;;;22.90;46.10;;;;;;4967764;28;20240;-62
2021/05/18 13:29:08;;;;;;;3.13;2.57;;;23.00;45.90;;;;;;4966037;28;20341;-59
2021/05/18 13:31:38;;;;;;;4.13;2.20;;;23.00;45.70;;;;;;4966024;28;20275;-61
2021/05/18 13:34:06;;;;;;;3.50;2.30;;;23.00;45.70;;;;;;4963744;28;20231;-58
2021/05/18 13:36:46;;;;;;;2.47;2.27;;;23.00;46.20;;;;;;4964864;28;20429;-59
2021/05/18 13:39:16;;;;;;;3.60;2.70;;;23.00;45.90;;;;;;4985393;28;20236;-62
2021/05/18 13:41:43;;;;;;;7.73;2.90;;;23.10;45.40;;;;;;4982653;28;20852;-61
2021/05/18 13:44:10;;;;;;;3.63;2.50;;;23.00;43.90;;;;;;4985375;28;20235;-59
2021/05/18 13:46:37;;;;;;;4.33;2.40;;;23.00;43.90;;;;;;4985097;28;20224;-60
2021/05/18 13:49:13;;;;;;;4.70;2.40;;;23.00;44.10;;;;;;4986284;28;21733;-62
2021/05/18 13:51:41;;;;;;;3.93;1.90;;;23.00;43.50;;;;;;4983973;28;20252;-58
2021/05/18 13:54:28;;;;;;;3.93;2.13;;;23.00;43.10;;;;;;4974657;28;22513;-60
2021/05/18 13:56:54;;;;;;;2.93;2.00;;;23.00;42.90;;;;;;4982674;28;20223;-62
2021/05/18 13:59:21;;;;;;;4.43;2.00;;;23.00;42.30;;;;;;4986026;28;20228;-62
2021/05/18 14:01:51;;;;;;;2.70;2.20;;;23.00;42.30;;;;;;4981720;28;20232;-60
2021/05/18 14:04:17;;;;;;;3.73;2.07;;;22.90;41.90;;;;;;4988552;28;20232;-61
2021/05/18 14:06:51;;;;;;;3.67;2.03;;;22.90;42.10;;;;;;4985517;28;20251;-60
2021/05/18 14:09:17;;;;;;;2.87;2.30;;;22.90;42.60;;;;;;4981505;28;20302;-61
2021/05/18 14:11:44;;;;;;;2.97;2.10;;;22.90;42.80;;;;;;4981308;28;20603;-60
2021/05/18 14:14:11;;;;;;;3.37;2.00;;;22.90;42.30;;;;;;4984267;28;20232;-59
2021/05/18 14:16:38;;;;;;;3.47;1.60;;;22.90;42.60;;;;;;4982102;28;20234;-59
2021/05/18 14:19:05;;;;;;;5.17;1.70;;;22.90;43.00;;;;;;4997606;28;20224;-60
2021/05/18 14:21:31;;;;;;;2.47;1.70;;;23.00;43.20;;;;;;4984930;28;20380;-60
2021/05/18 14:24:12;;;;;;;6.20;2.20;;;23.00;43.50;;;;;;4978685;28;20287;-60
2021/05/18 14:26:39;;;;;;;3.37;1.80;;;23.00;42.80;;;;;;4984069;28;20228;-63
2021/05/18 14:29:05;;;;;;;2.47;1.67;;;23.00;43.50;;;;;;4985364;28;20224;-63
2021/05/18 14:31:34;;;;;;;2.87;1.90;;;23.00;43.60;;;;;;4985288;28;20243;-66
2021/05/18 14:34:01;;;;;;;2.70;1.70;;;23.10;43.30;;;;;;4984022;28;20249;-63
2021/05/18 14:36:28;;;;;;;3.80;1.47;;;23.10;44.00;;;;;;4984898;28;20250;-60
2021/05/18 14:39:05;;;;;;;1.93;1.50;;;23.10;43.10;;;;;;4986496;28;20232;-62
2021/05/18 14:44:28;;;;;;;3.33;1.90;;;23.20;42.00;;;;;;4981211;28;21263;-63
2021/05/18 14:47:04;;;;;;;1.57;1.43;;;23.20;42.70;;;;;;4984469;28;20723;-63
2021/05/18 14:55:09;;;;;;;3.87;2.27;;;23.10;41.80;;;;;;4986372;28;20708;-63
2021/05/18 14:57:36;;;;;;;5.13;1.70;;;23.10;41.50;;;;;;4987343;28;20224;-61
2021/05/18 15:00:05;;;;;;;4.77;1.73;;;23.10;42.50;;;;;;4984996;28;20315;-61
2021/05/18 15:02:32;;;;;;;1.97;1.60;;;23.10;42.70;;;;;;4989263;28;20232;-61
2021/05/18 15:04:59;;;;;;;2.83;2.00;;;23.10;42.70;;;;;;4984999;28;20247;-62
2021/05/18 15:07:25;;;;;;;2.63;2.13;;;23.10;42.20;;;;;;4985236;28;20254;-64
2021/05/18 15:09:53;;;;;;;2.87;2.33;;;23.10;41.70;;;;;;4980792;28;20593;-60
2021/05/18 15:12:20;;;;;;;2.50;1.90;;;23.10;41.30;;;;;;4983313;28;20250;-61
2021/05/18 15:14:47;;;;;;;2.60;1.90;;;23.00;42.10;;;;;;4983173;28;20295;-65
2021/05/18 15:17:14;;;;;;;3.40;1.67;;;23.00;42.30;;;;;;4984586;28;20236;-63
2021/05/18 15:19:44;;;;;;;2.30;1.63;;;23.00;42.20;;;;;;4982814;28;20766;-61
2021/05/18 15:22:13;;;;;;;5.00;2.20;;;23.00;42.00;;;;;;4985064;28;20259;-61
2021/05/18 15:24:40;;;;;;;3.70;1.80;;;23.00;41.80;;;;;;4981200;28;20228;-62
2021/05/18 15:27:08;;;;;;;2.17;1.70;;;23.00;42.30;;;;;;4984293;28;20294;-62
2021/05/18 15:29:36;;;;;;;4.57;1.90;;;23.00;42.20;;;;;;4982277;28;20228;-67
2021/05/18 15:32:03;;;;;;;5.20;1.83;;;23.00;42.30;;;;;;4984865;28;20282;-67
2021/05/18 15:34:30;;;;;;;2.90;1.80;;;23.00;42.20;;;;;;4980561;28;20227;-71
2021/05/18 15:36:58;;;;;;;2.67;1.80;;;23.00;41.50;;;;;;4984121;28;20232;-63
2021/05/18 15:39:25;;;;;;;3.43;2.00;;;23.00;41.10;;;;;;4983537;28;20298;-66
2021/05/18 15:41:52;;;;;;;3.80;1.57;;;23.10;40.70;;;;;;4979998;28;20223;-67
2021/05/18 15:44:19;;;;;;;1.70;1.30;;;23.00;40.50;;;;;;4988782;28;20239;-66
2021/05/18 15:46:45;;;;;;;3.57;1.60;;;23.00;41.10;;;;;;4984906;28;20754;-64
2021/05/18 15:49:13;;;;;;;1.83;1.23;;;23.00;40.70;;;;;;5014640;28;20591;-62
2021/05/18 15:51:40;;;;;;;4.13;1.80;;;23.00;40.40;;;;;;4989999;28;20230;-60
2021/05/18 15:54:07;;;;;;;2.53;1.60;;;23.00;40.60;;;;;;4992304;28;20370;-62
2021/05/18 15:56:35;;;;;;;2.30;1.63;;;23.00;40.20;;;;;;4992452;28;20240;-62
2021/05/18 15:59:04;;;;;;;5.00;1.40;;;22.90;39.80;;;;;;4991181;28;20220;-62
2021/05/18 16:01:35;;;;;;;1.57;1.30;;;22.80;40.10;;;;;;4981576;28;20295;-61
2021/05/18 16:04:03;;;;;;;5.30;1.30;;;22.70;40.40;;;;;;4990958;28;20278;-61
2021/05/18 16:10:10;;;;;;;1.73;1.33;;;22.60;40.60;;;;;;4961142;28;20427;-55
2021/05/18 16:12:37;;;;;;;4.10;1.50;;;22.60;40.70;;;;;;4981679;28;20263;-56
2021/05/18 16:15:05;;;;;;;2.40;1.47;;;22.50;40.30;;;;;;4985072;28;20330;-59
2021/05/18 16:17:31;;;;;;;3.63;1.50;;;22.50;39.90;;;;;;4979416;28;20243;-63
2021/05/18 16:19:58;;;;;;;3.40;1.60;;;22.40;40.00;;;;;;4982767;28;20251;-61
2021/05/18 16:22:25;;;;;;;3.60;1.70;;;22.40;39.90;;;;;;4982322;28;20270;-62
2021/05/18 16:24:52;;;;;;;2.67;1.50;;;22.30;39.70;;;;;;4980793;28;20232;-63
2021/05/18 16:27:19;;;;;;;3.73;1.63;;;22.30;39.50;;;;;;4983657;28;20228;-56
2021/05/18 16:29:47;;;;;;;2.07;1.63;;;22.30;39.90;;;;;;4981503;28;20236;-57
2021/05/18 16:32:13;;;;;;;3.60;1.70;;;22.20;40.00;;;;;;4983364;28;20220;-60
2021/05/18 16:34:40;;;;;;;6.10;1.70;;;22.30;39.90;;;;;;4983048;28;20423;-61
2021/05/18 16:37:07;;;;;;;2.00;1.20;;;22.30;41.20;;;;;;4979614;28;20228;-59
2021/05/18 16:39:34;;;;;;;3.40;1.37;;;22.40;41.50;;;;;;4983132;28;20255;-61
2021/05/18 16:42:01;;;;;;;3.07;1.80;;;22.40;41.00;;;;;;4986420;28;20221;-62
2021/05/18 16:44:29;;;;;;;3.00;1.40;;;22.40;40.60;;;;;;4986841;28;20227;-59
2021/05/18 16:46:56;;;;;;;3.30;1.70;;;22.50;40.00;;;;;;4982334;28;20224;-62
2021/05/18 16:49:23;;;;;;;2.20;1.80;;;22.50;40.70;;;;;;4983752;28;20862;-64
2021/05/18 16:51:50;;;;;;;2.17;1.43;;;22.50;40.40;;;;;;4981552;28;20229;-62
2021/05/18 16:54:18;;;;;;;1.83;1.50;;;22.50;39.90;;;;;;4985715;28;20224;-61
2021/05/18 16:56:46;;;;;;;1.63;1.20;;;22.60;39.70;;;;;;4985413;28;20931;-60
2021/05/18 16:59:13;;;;;;;2.17;1.37;;;22.60;40.10;;;;;;4983604;28;20224;-62
2021/05/18 17:01:40;;;;;;;1.53;1.30;;;22.60;39.60;;;;;;4976595;28;20248;-62
2021/05/18 17:04:11;;;;;;;4.30;2.17;;;22.70;40.70;;;;;;4978536;28;20303;-61
2021/05/18 17:06:38;;;;;;;3.07;1.57;;;22.70;40.00;;;;;;4981850;28;20317;-60
2021/05/18 17:09:07;;;;;;;5.07;1.40;;;22.80;41.20;;;;;;4976643;28;20274;-57
2021/05/18 17:11:35;;;;;;;2.27;1.47;;;22.80;41.90;;;;;;4982563;28;20318;-58
2021/05/18 17:14:02;;;;;;;2.50;1.60;;;22.80;40.50;;;;;;4982861;28;20219;-60
2021/05/18 17:16:29;;;;;;;1.73;1.37;;;22.80;39.60;;;;;;4981198;28;20220;-63
2021/05/18 17:18:56;;;;;;;2.53;1.50;;;22.80;40.00;;;;;;4977829;28;20247;-65
2021/05/18 17:21:24;;;;;;;3.27;1.50;;;22.80;40.20;;;;;;4983352;28;20267;-60
2021/05/18 17:23:51;;;;;;;2.27;1.80;;;22.80;40.50;;;;;;4978776;28;20219;-59
2021/05/18 17:26:18;;;;;;;3.47;1.80;;;22.90;40.30;;;;;;4984072;28;20236;-59
2021/05/18 17:28:45;;;;;;;3.20;1.30;;;22.90;40.20;;;;;;4981791;28;20232;-59
2021/05/18 17:31:14;;;;;;;1.57;1.30;;;22.90;40.50;;;;;;4987147;28;20773;-64
2021/05/18 17:33:43;;;;;;;3.27;1.90;;;22.90;41.60;;;;;;4980775;28;20647;-65
2021/05/18 17:36:10;;;;;;;1.70;1.17;;;22.90;40.40;;;;;;4983882;28;20598;-65
2021/05/18 17:38:37;;;;;;;3.00;1.80;;;22.90;40.30;;;;;;4984321;28;20763;-64
2021/05/18 17:41:05;;;;;;;2.07;1.30;;;22.90;39.30;;;;;;4985336;28;20601;-65
2021/05/18 17:43:32;;;;;;;2.83;1.40;;;22.90;39.50;;;;;;4984352;28;20212;-65
2021/05/18 17:46:02;;;;;;;2.27;1.47;;;22.90;39.80;;;;;;4987240;28;20259;-60
2021/05/18 17:48:30;;;;;;;1.90;1.10;;;22.90;39.10;;;;;;4989842;28;20734;-59
2021/05/18 17:50:57;;;;;;;2.17;1.10;;;22.90;38.90;;;;;;4995162;28;20212;-58